Aeroporto :
LOGIN :

Iscrizione | Disclaimer

   EN    FR    IT 

 










Sommario :    VFR   VFR Marginale   IFR   IFR Intensivo   IFR Molto Intensivo
Visibilità : 
Base nubi : 
>= 8 km
>= 3000ft
5 / 8 km
1000 / 3000 ft
1500m / 5 km
500 / 1000 ft
800 / 1500m
200 / 500 ft
< 800m
< 200 ft
Simboli :   Temporali  Nebbia  Neve Forte  Precipitazioni Forti  Vento > 20 kt
SIGMETs :   Varie  Temporali  Ghiacco  Turbolenza  Onda orograficha  Ceneri Vulcaniche






- Altitudine del aeroporto : 844 ft
- Codice IATA : OSR


LKMT - Ostrava-Mosnov

ULTIMO METAR :
  • 250030Z 22014KT 9999 FEW048 07/02 Q1007 NOSIG

METARs OBSOLETI :
  • 250000Z 25011KT 9999 BKN043 06/02 Q1008 NOSIG
  • 242330Z 23019KT 9999 SCT046 06/02 Q1008 NOSIG
  • 242300Z 22020KT CAVOK 06/01 Q1008 NOSIG
  • 242230Z 21014KT CAVOK 05/01 Q1009 NOSIG
  • 242200Z 22017KT 9999 FEW023 05/01 Q1010 NOSIG

TAF TAF LKMT
Valido dal 25 a 00 ore il 26 a 06 ore UTC


242300Z 2500/2606 22016KT 9999 SCT030
TEMPO 2500/2606 RA BKN020
TEMPO 2500/2513 24018G28KT



MetMap, La meteo Aeronautica in un colpo d'occhio ! - Copyright ORBIFLY Dicembre 2007 - Disclaimer

ORBIFLY MET'MAP TEAM :

Programmazione e sviluppo : Alexandra Zaïnal
Concezione : Baudouin d'Aumeries
Aiuto per la programmazione : Marc-Olivier Méhu
Supporto tecnico e logistico : Manuel Goepfert
Aiuto per la traduzione : Arnaldo La Scala

Contatto : metmap@orbifly.com




FONTI E CREDITI :

   NOAA